Laurel, Ohio
Current Conditions -  °F | °C
As of 4:53 AM on Saturday 22 Nov 2014 (Local Time) from KLUK Reporting Station
Unknown Precip Unknown Precip  
Wind Chill: 31°   Ceiling: 4900
Heat Index: 31°   Visibility: 10mi
Dew Point: 23°   Wind: 3mph
Humidity: 72%   Direction: 180°S
Pressure: 30.34"   Gusts: NA
Location:  38.9542°N, 84.2299°W
Report Text: KLUK 220953Z 18003KT 10SM UP BKN049 OVC070 M01/M05 A3034 RMK AO2 UPB15 SLP279 P0000 T10061050
Loading
Personal Weather Stations






























Interactive Weather Map New forecast layout! Learn more

10-Day Weather Forecast

Advertisements
Track Severe Weather on mobile